sensor_id;sensor_type;location;lat;lon;timestamp;P1;durP1;ratioP1;P2;durP2;ratioP2
66860;SDS011;53770;42.334;23.550;2022-10-13T00:01:16;8.73;;;4.25;;
66860;SDS011;53770;42.334;23.550;2022-10-13T00:03:45;9.20;;;4.70;;
66860;SDS011;53770;42.334;23.550;2022-10-13T00:06:12;8.43;;;4.30;;
66860;SDS011;53770;42.334;23.550;2022-10-13T00:08:41;9.05;;;4.40;;
66860;SDS011;53770;42.334;23.550;2022-10-13T00:11:09;8.80;;;4.40;;
66860;SDS011;53770;42.334;23.550;2022-10-13T00:13:37;9.20;;;4.10;;
66860;SDS011;53770;42.334;23.550;2022-10-13T00:16:06;7.63;;;3.57;;
66860;SDS011;53770;42.334;23.550;2022-10-13T00:18:34;10.07;;;4.57;;
66860;SDS011;53770;42.334;23.550;2022-10-13T00:21:05;10.45;;;4.93;;
66860;SDS011;53770;42.334;23.550;2022-10-13T00:23:33;10.95;;;4.75;;
66860;SDS011;53770;42.334;23.550;2022-10-13T00:26:01;7.95;;;3.50;;
66860;SDS011;53770;42.334;23.550;2022-10-13T00:28:29;7.80;;;3.60;;
66860;SDS011;53770;42.334;23.550;2022-10-13T00:30:56;8.43;;;3.72;;
66860;SDS011;53770;42.334;23.550;2022-10-13T00:33:23;7.88;;;3.92;;
66860;SDS011;53770;42.334;23.550;2022-10-13T00:35:51;9.13;;;4.18;;
66860;SDS011;53770;42.334;23.550;2022-10-13T00:38:18;8.68;;;3.90;;
66860;SDS011;53770;42.334;23.550;2022-10-13T00:40:47;9.53;;;3.87;;
66860;SDS011;53770;42.334;23.550;2022-10-13T00:43:16;9.43;;;3.88;;
66860;SDS011;53770;42.334;23.550;2022-10-13T00:45:44;7.68;;;3.88;;
66860;SDS011;53770;42.334;23.550;2022-10-13T00:48:14;7.90;;;3.67;;
66860;SDS011;53770;42.334;23.550;2022-10-13T00:50:42;7.97;;;3.88;;
66860;SDS011;53770;42.334;23.550;2022-10-13T00:53:11;9.20;;;3.40;;
66860;SDS011;53770;42.334;23.550;2022-10-13T00:55:41;7.32;;;3.92;;
66860;SDS011;53770;42.334;23.550;2022-10-13T00:58:11;8.85;;;3.72;;
66860;SDS011;53770;42.334;23.550;2022-10-13T01:00:41;6.72;;;3.33;;
66860;SDS011;53770;42.334;23.550;2022-10-13T01:03:09;7.95;;;3.53;;
66860;SDS011;53770;42.334;23.550;2022-10-13T01:05:36;8.40;;;4.33;;
66860;SDS011;53770;42.334;23.550;2022-10-13T01:08:04;7.07;;;4.05;;
66860;SDS011;53770;42.334;23.550;2022-10-13T01:10:37;8.95;;;4.60;;
66860;SDS011;53770;42.334;23.550;2022-10-13T01:13:12;10.80;;;5.50;;
66860;SDS011;53770;42.334;23.550;2022-10-13T01:15:47;9.02;;;5.05;;
66860;SDS011;53770;42.334;23.550;2022-10-13T01:18:21;7.97;;;4.80;;
66860;SDS011;53770;42.334;23.550;2022-10-13T01:20:59;10.82;;;5.60;;
66860;SDS011;53770;42.334;23.550;2022-10-13T01:23:46;11.32;;;5.28;;
66860;SDS011;53770;42.334;23.550;2022-10-13T01:26:35;9.70;;;5.38;;
66860;SDS011;53770;42.334;23.550;2022-10-13T01:29:16;10.57;;;5.57;;
66860;SDS011;53770;42.334;23.550;2022-10-13T01:32:00;11.60;;;5.57;;
66860;SDS011;53770;42.334;23.550;2022-10-13T01:34:33;11.93;;;5.55;;
66860;SDS011;53770;42.334;23.550;2022-10-13T01:37:08;11.05;;;5.78;;
66860;SDS011;53770;42.334;23.550;2022-10-13T01:39:40;10.23;;;5.63;;
66860;SDS011;53770;42.334;23.550;2022-10-13T01:42:11;11.20;;;6.25;;
66860;SDS011;53770;42.334;23.550;2022-10-13T01:44:42;12.13;;;6.63;;
66860;SDS011;53770;42.334;23.550;2022-10-13T01:47:15;17.67;;;8.20;;
66860;SDS011;53770;42.334;23.550;2022-10-13T01:49:44;14.57;;;7.47;;
66860;SDS011;53770;42.334;23.550;2022-10-13T01:52:12;13.20;;;6.38;;
66860;SDS011;53770;42.334;23.550;2022-10-13T01:54:41;13.50;;;6.95;;
66860;SDS011;53770;42.334;23.550;2022-10-13T01:59:55;12.50;;;5.60;;
66860;SDS011;53770;42.334;23.550;2022-10-13T02:02:25;9.25;;;5.18;;
66860;SDS011;53770;42.334;23.550;2022-10-13T02:08:38;9.68;;;5.40;;
66860;SDS011;53770;42.334;23.550;2022-10-13T02:11:11;8.47;;;5.30;;
66860;SDS011;53770;42.334;23.550;2022-10-13T02:13:41;10.32;;;5.97;;
66860;SDS011;53770;42.334;23.550;2022-10-13T02:16:10;13.68;;;6.40;;
66860;SDS011;53770;42.334;23.550;2022-10-13T02:18:41;15.43;;;6.65;;
66860;SDS011;53770;42.334;23.550;2022-10-13T02:21:09;12.68;;;6.68;;
66860;SDS011;53770;42.334;23.550;2022-10-13T02:23:36;13.53;;;6.27;;
66860;SDS011;53770;42.334;23.550;2022-10-13T02:26:03;23.33;;;6.93;;
66860;SDS011;53770;42.334;23.550;2022-10-13T02:28:30;20.60;;;6.43;;
66860;SDS011;53770;42.334;23.550;2022-10-13T02:30:57;18.15;;;7.05;;
66860;SDS011;53770;42.334;23.550;2022-10-13T02:33:24;26.33;;;7.72;;
66860;SDS011;53770;42.334;23.550;2022-10-13T02:35:52;19.07;;;7.47;;
66860;SDS011;53770;42.334;23.550;2022-10-13T02:38:19;19.05;;;7.18;;
66860;SDS011;53770;42.334;23.550;2022-10-13T02:40:45;22.55;;;7.47;;
66860;SDS011;53770;42.334;23.550;2022-10-13T02:43:12;15.52;;;6.97;;
66860;SDS011;53770;42.334;23.550;2022-10-13T02:45:39;15.02;;;7.03;;
66860;SDS011;53770;42.334;23.550;2022-10-13T02:48:06;16.00;;;6.77;;
66860;SDS011;53770;42.334;23.550;2022-10-13T02:50:32;14.80;;;7.22;;
66860;SDS011;53770;42.334;23.550;2022-10-13T02:53:01;15.82;;;7.15;;
66860;SDS011;53770;42.334;23.550;2022-10-13T02:55:28;15.27;;;6.93;;
66860;SDS011;53770;42.334;23.550;2022-10-13T02:57:54;11.93;;;6.00;;
66860;SDS011;53770;42.334;23.550;2022-10-13T03:00:22;13.03;;;6.60;;
66860;SDS011;53770;42.334;23.550;2022-10-13T03:02:49;16.58;;;7.75;;
66860;SDS011;53770;42.334;23.550;2022-10-13T03:05:16;13.13;;;6.43;;
66860;SDS011;53770;42.334;23.550;2022-10-13T03:07:44;13.40;;;6.95;;
66860;SDS011;53770;42.334;23.550;2022-10-13T03:10:12;13.88;;;7.85;;
66860;SDS011;53770;42.334;23.550;2022-10-13T03:12:39;15.47;;;7.23;;
66860;SDS011;53770;42.334;23.550;2022-10-13T03:15:06;18.70;;;8.43;;
66860;SDS011;53770;42.334;23.550;2022-10-13T03:17:33;14.75;;;7.45;;
66860;SDS011;53770;42.334;23.550;2022-10-13T03:20:00;15.43;;;7.90;;
66860;SDS011;53770;42.334;23.550;2022-10-13T03:22:27;16.17;;;7.95;;
66860;SDS011;53770;42.334;23.550;2022-10-13T03:24:56;14.53;;;7.40;;
66860;SDS011;53770;42.334;23.550;2022-10-13T03:27:25;13.93;;;7.53;;
66860;SDS011;53770;42.334;23.550;2022-10-13T03:29:51;12.40;;;6.03;;
66860;SDS011;53770;42.334;23.550;2022-10-13T03:32:18;13.02;;;6.25;;
66860;SDS011;53770;42.334;23.550;2022-10-13T03:34:45;10.40;;;6.03;;
66860;SDS011;53770;42.334;23.550;2022-10-13T03:37:12;10.00;;;5.53;;
66860;SDS011;53770;42.334;23.550;2022-10-13T03:39:38;10.77;;;6.13;;
66860;SDS011;53770;42.334;23.550;2022-10-13T03:42:05;10.95;;;6.07;;
66860;SDS011;53770;42.334;23.550;2022-10-13T03:44:33;12.55;;;6.03;;
66860;SDS011;53770;42.334;23.550;2022-10-13T03:47:00;13.40;;;6.00;;
66860;SDS011;53770;42.334;23.550;2022-10-13T03:49:27;37.60;;;8.63;;
66860;SDS011;53770;42.334;23.550;2022-10-13T03:51:54;18.50;;;7.93;;
66860;SDS011;53770;42.334;23.550;2022-10-13T03:54:20;63.47;;;8.32;;
66860;SDS011;53770;42.334;23.550;2022-10-13T03:56:47;61.40;;;10.85;;
66860;SDS011;53770;42.334;23.550;2022-10-13T03:59:14;54.65;;;8.30;;
66860;SDS011;53770;42.334;23.550;2022-10-13T04:01:44;20.93;;;5.93;;
66860;SDS011;53770;42.334;23.550;2022-10-13T04:04:10;31.50;;;8.43;;
66860;SDS011;53770;42.334;23.550;2022-10-13T04:06:37;39.47;;;6.93;;
66860;SDS011;53770;42.334;23.550;2022-10-13T04:09:04;49.92;;;8.35;;
66860;SDS011;53770;42.334;23.550;2022-10-13T04:11:32;53.88;;;7.43;;
66860;SDS011;53770;42.334;23.550;2022-10-13T04:13:59;55.53;;;8.43;;
66860;SDS011;53770;42.334;23.550;2022-10-13T04:16:26;68.60;;;8.43;;
66860;SDS011;53770;42.334;23.550;2022-10-13T04:18:56;70.10;;;7.55;;
66860;SDS011;53770;42.334;23.550;2022-10-13T04:21:24;56.20;;;7.95;;
66860;SDS011;53770;42.334;23.550;2022-10-13T04:23:53;27.00;;;7.78;;
66860;SDS011;53770;42.334;23.550;2022-10-13T04:26:21;52.03;;;8.40;;
66860;SDS011;53770;42.334;23.550;2022-10-13T04:28:49;29.00;;;8.80;;
66860;SDS011;53770;42.334;23.550;2022-10-13T04:31:17;36.78;;;11.52;;
66860;SDS011;53770;42.334;23.550;2022-10-13T04:33:46;33.80;;;7.90;;
66860;SDS011;53770;42.334;23.550;2022-10-13T04:36:14;26.98;;;8.60;;
66860;SDS011;53770;42.334;23.550;2022-10-13T04:38:42;28.47;;;8.57;;
66860;SDS011;53770;42.334;23.550;2022-10-13T04:41:09;34.53;;;10.52;;
66860;SDS011;53770;42.334;23.550;2022-10-13T04:43:37;32.50;;;10.00;;
66860;SDS011;53770;42.334;23.550;2022-10-13T04:46:05;27.20;;;9.30;;
66860;SDS011;53770;42.334;23.550;2022-10-13T04:48:33;41.95;;;12.23;;
66860;SDS011;53770;42.334;23.550;2022-10-13T04:51:01;27.87;;;7.07;;
66860;SDS011;53770;42.334;23.550;2022-10-13T04:53:31;18.45;;;6.38;;
66860;SDS011;53770;42.334;23.550;2022-10-13T04:55:59;18.08;;;6.43;;
66860;SDS011;53770;42.334;23.550;2022-10-13T04:58:27;24.73;;;6.78;;
66860;SDS011;53770;42.334;23.550;2022-10-13T05:00:54;20.92;;;7.00;;
66860;SDS011;53770;42.334;23.550;2022-10-13T05:03:21;10.70;;;6.17;;
66860;SDS011;53770;42.334;23.550;2022-10-13T05:05:48;13.40;;;6.82;;
66860;SDS011;53770;42.334;23.550;2022-10-13T05:08:14;12.23;;;6.57;;
66860;SDS011;53770;42.334;23.550;2022-10-13T05:10:51;14.10;;;7.95;;
66860;SDS011;53770;42.334;23.550;2022-10-13T05:13:18;11.48;;;7.10;;
66860;SDS011;53770;42.334;23.550;2022-10-13T05:15:45;10.63;;;6.50;;
66860;SDS011;53770;42.334;23.550;2022-10-13T05:18:12;12.20;;;7.47;;
66860;SDS011;53770;42.334;23.550;2022-10-13T05:20:39;13.15;;;7.80;;
66860;SDS011;53770;42.334;23.550;2022-10-13T05:23:05;12.80;;;7.60;;
66860;SDS011;53770;42.334;23.550;2022-10-13T05:25:32;13.75;;;8.30;;
66860;SDS011;53770;42.334;23.550;2022-10-13T05:28:01;12.87;;;7.63;;
66860;SDS011;53770;42.334;23.550;2022-10-13T05:30:29;10.95;;;7.05;;
66860;SDS011;53770;42.334;23.550;2022-10-13T05:32:56;10.82;;;7.28;;
66860;SDS011;53770;42.334;23.550;2022-10-13T05:35:23;13.50;;;7.28;;
66860;SDS011;53770;42.334;23.550;2022-10-13T05:37:50;12.98;;;8.68;;
66860;SDS011;53770;42.334;23.550;2022-10-13T05:40:17;9.80;;;6.80;;
66860;SDS011;53770;42.334;23.550;2022-10-13T05:42:45;8.93;;;5.85;;
66860;SDS011;53770;42.334;23.550;2022-10-13T05:45:13;10.23;;;6.68;;
66860;SDS011;53770;42.334;23.550;2022-10-13T05:47:40;13.23;;;6.97;;
66860;SDS011;53770;42.334;23.550;2022-10-13T05:50:07;10.13;;;7.18;;
66860;SDS011;53770;42.334;23.550;2022-10-13T05:52:34;13.50;;;9.17;;
66860;SDS011;53770;42.334;23.550;2022-10-13T05:55:03;11.50;;;8.23;;
66860;SDS011;53770;42.334;23.550;2022-10-13T05:57:34;12.00;;;9.05;;
66860;SDS011;53770;42.334;23.550;2022-10-13T06:00:06;11.75;;;6.80;;
66860;SDS011;53770;42.334;23.550;2022-10-13T06:02:37;11.15;;;7.38;;
66860;SDS011;53770;42.334;23.550;2022-10-13T06:05:07;14.33;;;7.93;;
66860;SDS011;53770;42.334;23.550;2022-10-13T06:07:40;18.88;;;8.93;;
66860;SDS011;53770;42.334;23.550;2022-10-13T06:10:08;14.15;;;7.95;;
66860;SDS011;53770;42.334;23.550;2022-10-13T06:12:35;12.63;;;6.35;;
66860;SDS011;53770;42.334;23.550;2022-10-13T06:15:02;9.10;;;5.63;;
66860;SDS011;53770;42.334;23.550;2022-10-13T06:17:29;7.53;;;4.90;;
66860;SDS011;53770;42.334;23.550;2022-10-13T06:19:58;8.80;;;5.90;;
66860;SDS011;53770;42.334;23.550;2022-10-13T06:22:24;8.60;;;5.70;;
66860;SDS011;53770;42.334;23.550;2022-10-13T06:24:51;10.65;;;5.75;;
66860;SDS011;53770;42.334;23.550;2022-10-13T06:27:18;12.63;;;6.38;;
66860;SDS011;53770;42.334;23.550;2022-10-13T06:29:45;12.07;;;6.40;;
66860;SDS011;53770;42.334;23.550;2022-10-13T06:32:11;10.75;;;5.60;;
66860;SDS011;53770;42.334;23.550;2022-10-13T06:34:38;10.95;;;6.47;;
66860;SDS011;53770;42.334;23.550;2022-10-13T06:37:06;13.20;;;7.25;;
66860;SDS011;53770;42.334;23.550;2022-10-13T06:39:33;12.82;;;6.93;;
66860;SDS011;53770;42.334;23.550;2022-10-13T06:42:00;15.57;;;7.10;;
66860;SDS011;53770;42.334;23.550;2022-10-13T06:44:27;14.93;;;7.75;;
66860;SDS011;53770;42.334;23.550;2022-10-13T06:46:55;14.85;;;7.65;;
66860;SDS011;53770;42.334;23.550;2022-10-13T06:49:21;14.15;;;7.30;;
66860;SDS011;53770;42.334;23.550;2022-10-13T06:51:48;14.77;;;7.35;;
66860;SDS011;53770;42.334;23.550;2022-10-13T06:54:17;15.17;;;7.40;;
66860;SDS011;53770;42.334;23.550;2022-10-13T06:56:43;15.82;;;7.82;;
66860;SDS011;53770;42.334;23.550;2022-10-13T06:59:10;16.23;;;8.00;;
66860;SDS011;53770;42.334;23.550;2022-10-13T07:01:37;13.80;;;7.80;;
66860;SDS011;53770;42.334;23.550;2022-10-13T07:04:04;16.52;;;8.60;;
66860;SDS011;53770;42.334;23.550;2022-10-13T07:06:31;16.43;;;7.63;;
66860;SDS011;53770;42.334;23.550;2022-10-13T07:08:58;15.25;;;7.18;;
66860;SDS011;53770;42.334;23.550;2022-10-13T07:11:29;14.73;;;7.30;;
66860;SDS011;53770;42.334;23.550;2022-10-13T07:13:55;12.73;;;7.13;;
66860;SDS011;53770;42.334;23.550;2022-10-13T07:16:22;16.40;;;7.20;;
66860;SDS011;53770;42.334;23.550;2022-10-13T07:18:49;11.73;;;6.83;;
66860;SDS011;53770;42.334;23.550;2022-10-13T07:21:15;12.18;;;6.55;;
66860;SDS011;53770;42.334;23.550;2022-10-13T07:23:42;14.10;;;7.38;;
66860;SDS011;53770;42.334;23.550;2022-10-13T07:26:10;14.60;;;8.15;;
66860;SDS011;53770;42.334;23.550;2022-10-13T07:28:40;15.23;;;8.05;;
66860;SDS011;53770;42.334;23.550;2022-10-13T07:31:07;12.70;;;7.60;;
66860;SDS011;53770;42.334;23.550;2022-10-13T07:33:36;14.07;;;7.75;;
66860;SDS011;53770;42.334;23.550;2022-10-13T07:36:03;13.77;;;7.70;;
66860;SDS011;53770;42.334;23.550;2022-10-13T07:38:30;14.77;;;8.75;;
66860;SDS011;53770;42.334;23.550;2022-10-13T07:40:58;16.88;;;9.68;;
66860;SDS011;53770;42.334;23.550;2022-10-13T07:43:25;20.30;;;10.67;;
66860;SDS011;53770;42.334;23.550;2022-10-13T07:45:53;24.08;;;13.82;;
66860;SDS011;53770;42.334;23.550;2022-10-13T07:48:20;31.52;;;18.30;;
66860;SDS011;53770;42.334;23.550;2022-10-13T07:50:47;35.08;;;20.23;;
66860;SDS011;53770;42.334;23.550;2022-10-13T07:53:13;37.83;;;21.80;;
66860;SDS011;53770;42.334;23.550;2022-10-13T07:55:40;37.53;;;20.47;;
66860;SDS011;53770;42.334;23.550;2022-10-13T07:58:07;31.20;;;18.35;;
66860;SDS011;53770;42.334;23.550;2022-10-13T08:00:35;23.50;;;14.23;;
66860;SDS011;53770;42.334;23.550;2022-10-13T08:03:03;17.25;;;11.35;;
66860;SDS011;53770;42.334;23.550;2022-10-13T08:05:29;19.23;;;11.65;;
66860;SDS011;53770;42.334;23.550;2022-10-13T08:07:56;18.63;;;10.97;;
66860;SDS011;53770;42.334;23.550;2022-10-13T08:10:23;17.20;;;10.60;;
66860;SDS011;53770;42.334;23.550;2022-10-13T08:12:50;13.80;;;8.40;;
66860;SDS011;53770;42.334;23.550;2022-10-13T08:15:17;14.50;;;7.93;;
66860;SDS011;53770;42.334;23.550;2022-10-13T08:17:44;14.40;;;8.20;;
66860;SDS011;53770;42.334;23.550;2022-10-13T08:20:12;15.73;;;7.73;;
66860;SDS011;53770;42.334;23.550;2022-10-13T08:22:39;15.48;;;8.68;;
66860;SDS011;53770;42.334;23.550;2022-10-13T08:25:06;17.95;;;9.63;;
66860;SDS011;53770;42.334;23.550;2022-10-13T08:27:33;15.43;;;9.38;;
66860;SDS011;53770;42.334;23.550;2022-10-13T08:30:00;14.90;;;8.30;;
66860;SDS011;53770;42.334;23.550;2022-10-13T08:32:27;14.93;;;8.20;;
66860;SDS011;53770;42.334;23.550;2022-10-13T08:34:53;16.45;;;8.65;;
66860;SDS011;53770;42.334;23.550;2022-10-13T08:37:21;13.38;;;7.72;;
66860;SDS011;53770;42.334;23.550;2022-10-13T08:39:48;15.48;;;8.93;;
66860;SDS011;53770;42.334;23.550;2022-10-13T08:42:16;15.00;;;7.90;;
66860;SDS011;53770;42.334;23.550;2022-10-13T08:44:45;15.93;;;8.57;;
66860;SDS011;53770;42.334;23.550;2022-10-13T08:47:17;15.38;;;9.30;;
66860;SDS011;53770;42.334;23.550;2022-10-13T08:49:49;16.65;;;8.38;;
66860;SDS011;53770;42.334;23.550;2022-10-13T08:52:17;16.58;;;7.93;;
66860;SDS011;53770;42.334;23.550;2022-10-13T08:54:48;14.55;;;7.95;;
66860;SDS011;53770;42.334;23.550;2022-10-13T08:57:15;13.30;;;8.17;;
66860;SDS011;53770;42.334;23.550;2022-10-13T08:59:42;17.42;;;9.25;;
66860;SDS011;53770;42.334;23.550;2022-10-13T09:02:10;16.00;;;9.23;;
66860;SDS011;53770;42.334;23.550;2022-10-13T09:04:39;22.00;;;11.00;;
66860;SDS011;53770;42.334;23.550;2022-10-13T09:07:10;15.48;;;9.43;;
66860;SDS011;53770;42.334;23.550;2022-10-13T09:09:40;15.20;;;9.67;;
66860;SDS011;53770;42.334;23.550;2022-10-13T09:12:09;17.38;;;10.10;;
66860;SDS011;53770;42.334;23.550;2022-10-13T09:14:38;17.95;;;10.60;;
66860;SDS011;53770;42.334;23.550;2022-10-13T09:17:11;19.35;;;11.10;;
66860;SDS011;53770;42.334;23.550;2022-10-13T09:19:39;19.15;;;11.90;;
66860;SDS011;53770;42.334;23.550;2022-10-13T09:22:14;19.10;;;11.83;;
66860;SDS011;53770;42.334;23.550;2022-10-13T09:24:47;16.42;;;10.77;;
66860;SDS011;53770;42.334;23.550;2022-10-13T09:27:28;16.90;;;11.02;;
66860;SDS011;53770;42.334;23.550;2022-10-13T09:30:17;18.35;;;11.93;;
66860;SDS011;53770;42.334;23.550;2022-10-13T09:32:54;17.80;;;11.88;;
66860;SDS011;53770;42.334;23.550;2022-10-13T09:35:30;18.37;;;13.20;;
66860;SDS011;53770;42.334;23.550;2022-10-13T09:38:02;18.40;;;12.50;;
66860;SDS011;53770;42.334;23.550;2022-10-13T09:40:29;18.63;;;12.32;;
66860;SDS011;53770;42.334;23.550;2022-10-13T09:42:57;20.52;;;13.13;;
66860;SDS011;53770;42.334;23.550;2022-10-13T09:45:26;18.45;;;13.32;;
66860;SDS011;53770;42.334;23.550;2022-10-13T09:47:56;18.17;;;13.97;;
66860;SDS011;53770;42.334;23.550;2022-10-13T09:50:24;15.95;;;12.82;;
66860;SDS011;53770;42.334;23.550;2022-10-13T09:52:53;17.75;;;13.80;;
66860;SDS011;53770;42.334;23.550;2022-10-13T09:55:40;17.48;;;13.93;;
66860;SDS011;53770;42.334;23.550;2022-10-13T09:58:09;18.35;;;13.77;;
66860;SDS011;53770;42.334;23.550;2022-10-13T10:00:41;16.33;;;13.40;;
66860;SDS011;53770;42.334;23.550;2022-10-13T10:03:09;18.10;;;13.52;;
66860;SDS011;53770;42.334;23.550;2022-10-13T10:05:43;19.08;;;14.55;;
66860;SDS011;53770;42.334;23.550;2022-10-13T10:08:17;16.77;;;13.65;;
66860;SDS011;53770;42.334;23.550;2022-10-13T10:10:47;18.52;;;13.75;;
66860;SDS011;53770;42.334;23.550;2022-10-13T10:13:15;18.40;;;13.23;;
66860;SDS011;53770;42.334;23.550;2022-10-13T10:15:55;14.90;;;11.40;;
66860;SDS011;53770;42.334;23.550;2022-10-13T10:18:32;11.10;;;9.13;;
66860;SDS011;53770;42.334;23.550;2022-10-13T10:21:07;11.60;;;8.32;;
66860;SDS011;53770;42.334;23.550;2022-10-13T10:23:41;11.73;;;8.10;;
66860;SDS011;53770;42.334;23.550;2022-10-13T10:26:12;13.30;;;8.50;;
66860;SDS011;53770;42.334;23.550;2022-10-13T10:28:51;14.50;;;10.20;;
66860;SDS011;53770;42.334;23.550;2022-10-13T10:31:29;13.38;;;10.20;;
66860;SDS011;53770;42.334;23.550;2022-10-13T10:34:22;9.60;;;7.93;;
66860;SDS011;53770;42.334;23.550;2022-10-13T10:36:58;10.90;;;9.35;;
66860;SDS011;53770;42.334;23.550;2022-10-13T10:39:44;7.93;;;6.77;;
66860;SDS011;53770;42.334;23.550;2022-10-13T10:42:18;7.60;;;5.25;;
66860;SDS011;53770;42.334;23.550;2022-10-13T10:44:53;8.80;;;6.60;;
66860;SDS011;53770;42.334;23.550;2022-10-13T10:47:22;7.85;;;5.80;;
66860;SDS011;53770;42.334;23.550;2022-10-13T10:49:53;6.10;;;4.78;;
66860;SDS011;53770;42.334;23.550;2022-10-13T10:52:23;7.67;;;4.53;;
66860;SDS011;53770;42.334;23.550;2022-10-13T10:54:58;6.65;;;4.50;;
66860;SDS011;53770;42.334;23.550;2022-10-13T10:57:35;6.60;;;4.20;;
66860;SDS011;53770;42.334;23.550;2022-10-13T11:00:14;7.25;;;4.38;;
66860;SDS011;53770;42.334;23.550;2022-10-13T11:02:44;6.40;;;4.63;;
66860;SDS011;53770;42.334;23.550;2022-10-13T11:05:16;6.17;;;5.13;;
66860;SDS011;53770;42.334;23.550;2022-10-13T11:07:58;6.88;;;5.20;;
66860;SDS011;53770;42.334;23.550;2022-10-13T11:10:25;5.63;;;4.93;;
66860;SDS011;53770;42.334;23.550;2022-10-13T11:15:51;5.78;;;5.18;;
66860;SDS011;53770;42.334;23.550;2022-10-13T11:27:50;6.35;;;5.75;;
66860;SDS011;53770;42.334;23.550;2022-10-13T11:33:50;5.87;;;5.07;;
66860;SDS011;53770;42.334;23.550;2022-10-13T11:36:32;6.90;;;5.78;;
66860;SDS011;53770;42.334;23.550;2022-10-13T11:42:09;6.43;;;4.50;;
66860;SDS011;53770;42.334;23.550;2022-10-13T11:44:53;5.30;;;4.78;;
66860;SDS011;53770;42.334;23.550;2022-10-13T11:47:32;6.90;;;6.20;;
66860;SDS011;53770;42.334;23.550;2022-10-13T11:50:23;5.75;;;4.82;;
66860;SDS011;53770;42.334;23.550;2022-10-13T11:53:00;6.85;;;4.00;;
66860;SDS011;53770;42.334;23.550;2022-10-13T11:55:38;8.10;;;3.90;;
66860;SDS011;53770;42.334;23.550;2022-10-13T11:58:13;4.97;;;3.33;;
66860;SDS011;53770;42.334;23.550;2022-10-13T12:00:51;5.37;;;3.97;;
66860;SDS011;53770;42.334;23.550;2022-10-13T12:03:20;7.03;;;5.00;;
66860;SDS011;53770;42.334;23.550;2022-10-13T12:05:50;6.47;;;4.97;;
66860;SDS011;53770;42.334;23.550;2022-10-13T12:08:17;7.50;;;5.43;;
66860;SDS011;53770;42.334;23.550;2022-10-13T12:10:46;6.50;;;5.97;;
66860;SDS011;53770;42.334;23.550;2022-10-13T12:13:21;6.03;;;5.20;;
66860;SDS011;53770;42.334;23.550;2022-10-13T12:15:54;7.45;;;6.43;;
66860;SDS011;53770;42.334;23.550;2022-10-13T12:18:25;7.05;;;6.35;;
66860;SDS011;53770;42.334;23.550;2022-10-13T12:20:56;6.80;;;6.10;;
66860;SDS011;53770;42.334;23.550;2022-10-13T12:23:24;8.27;;;7.57;;
66860;SDS011;53770;42.334;23.550;2022-10-13T12:25:53;7.47;;;6.77;;
66860;SDS011;53770;42.334;23.550;2022-10-13T12:28:23;8.18;;;7.40;;
66860;SDS011;53770;42.334;23.550;2022-10-13T12:30:51;8.82;;;5.20;;
66860;SDS011;53770;42.334;23.550;2022-10-13T12:33:21;5.60;;;4.50;;
66860;SDS011;53770;42.334;23.550;2022-10-13T12:35:51;4.18;;;3.78;;
66860;SDS011;53770;42.334;23.550;2022-10-13T12:38:20;4.17;;;3.53;;
66860;SDS011;53770;42.334;23.550;2022-10-13T12:40:48;5.63;;;3.83;;
66860;SDS011;53770;42.334;23.550;2022-10-13T12:43:18;6.53;;;2.97;;
66860;SDS011;53770;42.334;23.550;2022-10-13T12:45:49;3.65;;;2.80;;
66860;SDS011;53770;42.334;23.550;2022-10-13T12:48:29;8.70;;;3.80;;
66860;SDS011;53770;42.334;23.550;2022-10-13T12:51:06;6.43;;;3.57;;
66860;SDS011;53770;42.334;23.550;2022-10-13T12:53:36;4.70;;;3.10;;
66860;SDS011;53770;42.334;23.550;2022-10-13T12:56:03;5.72;;;3.13;;
66860;SDS011;53770;42.334;23.550;2022-10-13T12:58:31;6.60;;;3.65;;
66860;SDS011;53770;42.334;23.550;2022-10-13T13:01:03;5.55;;;3.38;;
66860;SDS011;53770;42.334;23.550;2022-10-13T13:03:33;6.73;;;3.80;;
66860;SDS011;53770;42.334;23.550;2022-10-13T13:06:07;6.68;;;5.00;;
66860;SDS011;53770;42.334;23.550;2022-10-13T13:08:51;7.35;;;3.72;;
66860;SDS011;53770;42.334;23.550;2022-10-13T13:12:02;5.25;;;3.25;;
66860;SDS011;53770;42.334;23.550;2022-10-13T13:14:47;6.55;;;3.47;;
66860;SDS011;53770;42.334;23.550;2022-10-13T13:17:21;4.70;;;2.67;;
66860;SDS011;53770;42.334;23.550;2022-10-13T13:19:53;5.90;;;2.75;;
66860;SDS011;53770;42.334;23.550;2022-10-13T13:22:21;5.72;;;2.83;;
66860;SDS011;53770;42.334;23.550;2022-10-13T13:24:50;5.60;;;2.60;;
66860;SDS011;53770;42.334;23.550;2022-10-13T13:27:19;5.38;;;2.70;;
66860;SDS011;53770;42.334;23.550;2022-10-13T13:29:49;7.00;;;2.93;;
66860;SDS011;53770;42.334;23.550;2022-10-13T13:32:17;5.70;;;3.05;;
66860;SDS011;53770;42.334;23.550;2022-10-13T13:34:44;6.60;;;3.10;;
66860;SDS011;53770;42.334;23.550;2022-10-13T13:39:58;6.50;;;3.38;;
66860;SDS011;53770;42.334;23.550;2022-10-13T13:42:26;9.70;;;3.57;;
66860;SDS011;53770;42.334;23.550;2022-10-13T13:44:53;7.10;;;3.83;;
66860;SDS011;53770;42.334;23.550;2022-10-13T13:47:20;7.55;;;3.50;;
66860;SDS011;53770;42.334;23.550;2022-10-13T13:49:48;9.25;;;4.00;;
66860;SDS011;53770;42.334;23.550;2022-10-13T13:52:17;7.07;;;3.38;;
66860;SDS011;53770;42.334;23.550;2022-10-13T13:54:46;5.90;;;3.43;;
66860;SDS011;53770;42.334;23.550;2022-10-13T13:57:16;6.32;;;3.67;;
66860;SDS011;53770;42.334;23.550;2022-10-13T13:59:43;8.73;;;3.75;;
66860;SDS011;53770;42.334;23.550;2022-10-13T14:02:11;5.82;;;3.40;;
66860;SDS011;53770;42.334;23.550;2022-10-13T14:04:40;7.70;;;4.10;;
66860;SDS011;53770;42.334;23.550;2022-10-13T14:07:07;8.33;;;3.80;;
66860;SDS011;53770;42.334;23.550;2022-10-13T14:09:33;6.68;;;3.83;;
66860;SDS011;53770;42.334;23.550;2022-10-13T14:12:00;6.32;;;3.90;;
66860;SDS011;53770;42.334;23.550;2022-10-13T14:14:30;8.00;;;4.00;;
66860;SDS011;53770;42.334;23.550;2022-10-13T14:16:57;8.00;;;4.82;;
66860;SDS011;53770;42.334;23.550;2022-10-13T14:19:24;9.50;;;4.23;;
66860;SDS011;53770;42.334;23.550;2022-10-13T14:21:50;8.70;;;4.90;;
66860;SDS011;53770;42.334;23.550;2022-10-13T14:24:17;7.78;;;4.68;;
66860;SDS011;53770;42.334;23.550;2022-10-13T14:26:44;7.88;;;4.90;;
66860;SDS011;53770;42.334;23.550;2022-10-13T14:29:11;10.65;;;6.10;;
66860;SDS011;53770;42.334;23.550;2022-10-13T14:31:39;12.40;;;6.73;;
66860;SDS011;53770;42.334;23.550;2022-10-13T14:34:06;9.32;;;4.60;;
66860;SDS011;53770;42.334;23.550;2022-10-13T14:36:33;8.48;;;4.68;;
66860;SDS011;53770;42.334;23.550;2022-10-13T14:39:00;8.00;;;4.10;;
66860;SDS011;53770;42.334;23.550;2022-10-13T14:41:26;7.03;;;3.35;;
66860;SDS011;53770;42.334;23.550;2022-10-13T14:43:53;7.43;;;3.73;;
66860;SDS011;53770;42.334;23.550;2022-10-13T14:46:22;7.93;;;4.68;;
66860;SDS011;53770;42.334;23.550;2022-10-13T14:48:50;6.35;;;3.65;;
66860;SDS011;53770;42.334;23.550;2022-10-13T14:51:17;9.00;;;4.20;;
66860;SDS011;53770;42.334;23.550;2022-10-13T14:53:44;8.23;;;4.32;;
66860;SDS011;53770;42.334;23.550;2022-10-13T14:56:15;4.50;;;2.60;;
66860;SDS011;53770;42.334;23.550;2022-10-13T14:58:44;6.53;;;3.45;;
66860;SDS011;53770;42.334;23.550;2022-10-13T15:01:11;7.75;;;4.20;;
66860;SDS011;53770;42.334;23.550;2022-10-13T15:03:37;8.68;;;3.30;;
66860;SDS011;53770;42.334;23.550;2022-10-13T15:06:06;7.15;;;3.80;;
66860;SDS011;53770;42.334;23.550;2022-10-13T15:08:35;6.43;;;4.13;;